createdAt,value
2018-07-03T00:04:40.409Z,17.60
2018-07-03T00:09:43.006Z,17.50
2018-07-03T00:14:45.654Z,17.30
2018-07-03T00:19:49.467Z,17.10
2018-07-03T00:24:52.095Z,17.00
2018-07-03T00:29:54.821Z,16.80
2018-07-03T00:34:57.451Z,16.70
2018-07-03T00:40:00.042Z,16.60
2018-07-03T00:45:02.724Z,16.60
2018-07-03T00:50:05.559Z,16.50
2018-07-03T01:00:22.191Z,16.30
2018-07-03T01:05:24.769Z,16.30
2018-07-03T01:10:28.021Z,16.20
2018-07-03T01:15:30.891Z,16.00
2018-07-03T01:20:33.542Z,16.00
2018-07-03T01:25:36.170Z,15.90
2018-07-03T01:30:38.794Z,15.90
2018-07-03T01:35:41.449Z,15.90
2018-07-03T01:40:44.059Z,15.90
2018-07-03T01:45:46.671Z,15.80
2018-07-03T01:50:49.302Z,15.80
2018-07-03T01:55:51.966Z,15.80
2018-07-03T02:00:54.567Z,15.70
2018-07-03T02:05:57.187Z,15.80
2018-07-03T02:11:00.059Z,15.60
2018-07-03T02:16:05.211Z,15.50
2018-07-03T02:21:07.947Z,15.40
2018-07-03T02:26:10.601Z,15.40
2018-07-03T02:31:13.206Z,15.30
2018-07-03T02:36:15.834Z,19.70
2018-07-03T02:41:18.462Z,15.10
2018-07-03T02:46:21.115Z,15.00
2018-07-03T02:51:23.723Z,14.90
2018-07-03T02:56:26.444Z,14.80
2018-07-03T03:01:29.031Z,14.80
2018-07-03T03:06:31.695Z,14.70
2018-07-03T03:11:34.306Z,14.50
2018-07-03T03:16:36.951Z,14.50
2018-07-03T03:21:39.605Z,14.40
2018-07-03T03:26:42.222Z,14.40
2018-07-03T03:31:44.872Z,14.30
2018-07-03T03:36:47.554Z,14.30
2018-07-03T03:46:52.802Z,14.30
2018-07-03T03:51:55.458Z,14.40
2018-07-03T03:56:58.138Z,14.50
2018-07-03T04:02:00.747Z,14.50
2018-07-03T04:07:03.409Z,14.60
2018-07-03T04:12:06.011Z,14.60
2018-07-03T04:17:08.658Z,14.70
2018-07-03T04:22:11.273Z,14.80
2018-07-03T04:27:13.912Z,14.90
2018-07-03T04:32:16.527Z,14.90
2018-07-03T04:37:19.266Z,15.10
2018-07-03T04:42:21.868Z,15.30
2018-07-03T04:47:24.495Z,15.60
2018-07-03T04:52:27.106Z,15.70
2018-07-03T04:57:29.703Z,15.90
2018-07-03T05:02:32.318Z,16.00
2018-07-03T05:07:34.950Z,16.10
2018-07-03T05:12:37.585Z,16.20
2018-07-03T05:17:40.186Z,16.30
2018-07-03T05:22:42.856Z,16.50
2018-07-03T05:27:45.604Z,16.70
2018-07-03T05:32:48.242Z,16.90
2018-07-03T05:37:50.862Z,17.10
2018-07-03T05:42:53.507Z,17.30
2018-07-03T05:47:56.087Z,17.60
2018-07-03T05:52:58.790Z,17.90
2018-07-03T05:58:01.344Z,18.20
2018-07-03T06:08:13.248Z,18.80
2018-07-03T06:13:15.915Z,18.80
2018-07-03T06:18:18.550Z,19.20
2018-07-03T06:23:21.147Z,19.40
2018-07-03T06:28:23.742Z,19.60
2018-07-03T06:33:26.371Z,19.80
2018-07-03T06:38:28.994Z,20.20
2018-07-03T06:43:31.615Z,20.50
2018-07-03T06:48:34.212Z,20.80
2018-07-03T06:53:36.804Z,21.10
2018-07-03T06:58:39.429Z,21.40
2018-07-03T07:03:42.046Z,22.00
2018-07-03T07:08:44.844Z,22.40
2018-07-03T07:13:47.467Z,22.60
2018-07-03T07:18:50.130Z,22.80
2018-07-03T07:23:53.102Z,22.90
2018-07-03T07:28:55.718Z,23.20
2018-07-03T07:33:58.338Z,23.60
2018-07-03T07:39:01.071Z,24.00
2018-07-03T07:44:04.940Z,24.30
2018-07-03T07:49:07.545Z,24.60
2018-07-03T07:54:10.250Z,24.70
2018-07-03T07:59:12.898Z,25.00
2018-07-03T08:04:15.540Z,25.40
2018-07-03T08:09:18.151Z,25.70
2018-07-03T08:14:20.767Z,26.00
2018-07-03T08:19:23.387Z,26.20
2018-07-03T08:24:26.402Z,26.30
2018-07-03T08:29:29.046Z,26.50
2018-07-03T08:34:31.643Z,26.70
2018-07-03T08:39:34.253Z,26.80
2018-07-03T08:44:36.873Z,27.30
2018-07-03T08:49:39.505Z,27.40
2018-07-03T08:54:42.187Z,27.40
2018-07-03T08:59:44.883Z,27.50
2018-07-03T09:04:47.495Z,27.70
2018-07-03T09:09:50.251Z,27.80
2018-07-03T09:14:52.983Z,27.60
2018-07-03T09:19:55.603Z,27.90
2018-07-03T09:24:58.215Z,28.50
2018-07-03T09:30:00.867Z,28.70
2018-07-03T09:35:03.551Z,29.40
2018-07-03T09:40:06.274Z,29.80
2018-07-03T09:45:08.983Z,30.40
2018-07-03T09:50:11.650Z,30.90
2018-07-03T10:00:21.505Z,31.60
2018-07-03T10:05:24.126Z,32.20
2018-07-03T10:10:27.021Z,33.20
2018-07-03T10:15:29.674Z,33.30
2018-07-03T10:20:32.358Z,33.00
2018-07-03T10:25:34.990Z,33.80
2018-07-03T10:30:37.614Z,34.00
2018-07-03T10:40:42.807Z,32.80
2018-07-03T10:45:45.417Z,32.80
2018-07-03T10:50:48.281Z,32.90
2018-07-03T10:55:50.902Z,32.60
2018-07-03T11:00:53.566Z,32.50
2018-07-03T11:05:56.475Z,31.90
2018-07-03T11:10:59.123Z,31.30
2018-07-03T11:16:01.788Z,31.20
2018-07-03T11:21:04.620Z,30.80
2018-07-03T11:26:07.267Z,30.00
2018-07-03T11:31:09.911Z,29.80
2018-07-03T11:36:12.562Z,28.50
2018-07-03T11:46:18.018Z,28.90
2018-07-03T11:51:20.746Z,29.10
2018-07-03T11:56:23.864Z,29.30
2018-07-03T12:01:26.647Z,29.80
2018-07-03T12:06:29.324Z,31.50
2018-07-03T12:11:31.990Z,32.60
2018-07-03T12:16:34.658Z,33.30
2018-07-03T12:21:37.280Z,34.00
2018-07-03T12:26:39.934Z,34.40
2018-07-03T12:31:42.600Z,34.90
2018-07-03T12:36:45.279Z,36.10
2018-07-03T12:41:47.879Z,36.00
2018-07-03T12:46:50.567Z,36.20
2018-07-03T12:51:53.285Z,36.10
2018-07-03T12:56:55.956Z,37.00
2018-07-03T13:01:59.017Z,37.20
2018-07-03T13:07:01.669Z,37.80
2018-07-03T13:12:04.355Z,39.00
2018-07-03T13:17:07.114Z,39.50
2018-07-03T13:22:09.887Z,41.10
2018-07-03T13:27:12.509Z,41.30
2018-07-03T13:32:15.181Z,41.00
2018-07-03T13:37:17.837Z,40.90
2018-07-03T13:42:20.466Z,39.60
2018-07-03T13:47:23.083Z,38.80
2018-07-03T13:52:25.690Z,40.00
2018-07-03T13:57:28.330Z,41.10
2018-07-03T14:02:30.959Z,41.40
2018-07-03T14:07:33.654Z,41.20
2018-07-03T14:12:36.294Z,40.20
2018-07-03T14:17:39.365Z,40.00
2018-07-03T14:22:42.022Z,39.10
2018-07-03T14:27:44.760Z,40.00
2018-07-03T14:32:50.888Z,41.30
2018-07-03T14:37:56.570Z,40.90
2018-07-03T14:42:59.520Z,41.90
2018-07-03T14:48:02.319Z,41.90
2018-07-03T14:53:06.295Z,44.10
2018-07-03T14:58:08.907Z,40.80
2018-07-03T15:03:11.662Z,42.80
2018-07-03T15:08:14.296Z,43.70
2018-07-03T15:13:16.978Z,44.00
2018-07-03T15:18:19.628Z,41.60
2018-07-03T15:23:22.334Z,42.10
2018-07-03T15:33:27.843Z,38.80
2018-07-03T15:38:30.535Z,36.80
2018-07-03T15:43:33.187Z,35.40
2018-07-03T15:48:35.934Z,35.80
2018-07-03T15:53:38.596Z,35.00
2018-07-03T15:58:41.235Z,33.30
2018-07-03T16:04:01.695Z,32.30
2018-07-03T16:09:12.234Z,31.90
2018-07-03T16:14:14.861Z,31.70
2018-07-03T16:19:23.777Z,31.50
2018-07-03T16:24:26.578Z,31.20
2018-07-03T16:29:29.434Z,31.70
2018-07-03T16:34:32.091Z,32.60
2018-07-03T16:39:34.794Z,33.20
2018-07-03T16:44:37.456Z,32.30
2018-07-03T16:49:40.138Z,30.90
2018-07-03T16:54:42.787Z,30.00
2018-07-03T16:59:45.435Z,29.40
2018-07-03T17:04:48.079Z,29.40
2018-07-03T17:14:53.271Z,29.10
2018-07-03T17:19:55.883Z,29.90
2018-07-03T17:24:58.516Z,29.70
2018-07-03T17:30:01.210Z,29.50
2018-07-03T17:35:03.955Z,29.70
2018-07-03T17:40:17.960Z,30.50
2018-07-03T17:45:42.379Z,30.50
2018-07-03T17:50:44.998Z,30.50
2018-07-03T17:55:47.724Z,30.00
2018-07-03T18:00:50.431Z,29.20
2018-07-03T18:05:53.179Z,28.40
2018-07-03T18:10:55.871Z,28.00
2018-07-03T18:15:58.639Z,27.80
2018-07-03T18:21:01.305Z,27.40
2018-07-03T18:26:04.135Z,26.90
2018-07-03T18:31:06.958Z,26.50
2018-07-03T18:36:09.645Z,26.20
2018-07-03T18:41:12.413Z,26.00
2018-07-03T18:46:15.093Z,25.60
2018-07-03T18:51:17.837Z,29.30
2018-07-03T18:56:20.501Z,24.70
2018-07-03T19:01:23.259Z,24.30
2018-07-03T19:06:25.908Z,22.60
2018-07-03T19:11:28.571Z,23.70
2018-07-03T19:16:31.516Z,23.50
2018-07-03T19:21:34.221Z,23.40
2018-07-03T19:26:37.128Z,23.80
2018-07-03T19:31:39.763Z,22.90
2018-07-03T19:36:42.595Z,22.60
2018-07-03T19:46:47.730Z,22.00
2018-07-03T19:51:50.481Z,21.80
2018-07-03T19:56:53.142Z,21.70
2018-07-03T20:01:55.863Z,21.70
2018-07-03T20:06:58.507Z,21.60
2018-07-03T20:12:01.243Z,21.40
2018-07-03T20:17:04.030Z,21.40
2018-07-03T20:22:06.703Z,21.40
2018-07-03T20:27:09.322Z,21.30
2018-07-03T20:32:11.951Z,21.30
2018-07-03T20:37:14.558Z,23.30
2018-07-03T20:42:17.118Z,21.20
2018-07-03T20:47:19.748Z,21.40
2018-07-03T20:57:24.996Z,21.20
2018-07-03T21:02:27.699Z,21.00
2018-07-03T21:07:30.419Z,21.00
2018-07-03T21:12:33.043Z,20.90
2018-07-03T21:22:38.177Z,20.70
2018-07-03T21:27:41.314Z,20.60
2018-07-03T21:32:44.931Z,20.40
2018-07-03T21:37:47.554Z,20.30
2018-07-03T21:42:50.171Z,20.20
2018-07-03T21:47:52.761Z,20.10
2018-07-03T21:52:55.375Z,20.10
2018-07-03T21:57:57.986Z,20.10
2018-07-03T22:03:00.598Z,20.00
2018-07-03T22:08:03.809Z,23.40
2018-07-03T22:13:06.416Z,20.00
2018-07-03T22:18:09.056Z,20.00
2018-07-03T22:23:11.697Z,19.90
2018-07-03T22:33:16.838Z,19.70
2018-07-03T22:38:19.450Z,19.60
2018-07-03T22:43:22.114Z,19.50
2018-07-03T22:48:24.727Z,19.50
2018-07-03T22:53:27.331Z,19.40
2018-07-03T22:58:29.948Z,19.40
2018-07-03T23:03:32.646Z,19.20
2018-07-03T23:08:35.265Z,19.20
2018-07-03T23:13:37.855Z,19.20
2018-07-03T23:18:40.458Z,19.40
2018-07-03T23:23:43.194Z,19.50
2018-07-03T23:28:45.808Z,19.50
2018-07-03T23:33:48.420Z,19.60
2018-07-03T23:38:51.027Z,19.70
2018-07-03T23:43:53.821Z,19.60
2018-07-03T23:49:07.851Z,19.50
2018-07-03T23:54:27.881Z,19.40
2018-07-03T23:59:48.062Z,19.30
